Terminal Aerodrome Forecast
Issued by NWS Upton, NY

Home | Current Version | Previous Version | Text Only | Print | Product List | Glossary On
Versions: 1 2 3 4 5 6 7 8 9 10 11 12 13 14 15 16 17 18 19 20 21 22 23 24 25
000
FTUS41 KOKX 221400 AAA
TAFEWR
TAF AMD
KEWR 221430Z 2215/2318 22005KT P6SM SCT250
     FM221700 21008KT P6SM SCT060
     FM222000 17011KT P6SM FEW060 FEW250
     FM230100 22007KT P6SM FEW250
     FM231500 21010KT P6SM FEW040=

USA.gov is the U.S. government's official web portal to all federal, state and local government web resources and services.